MDT,Max TemperatureF,Mean TemperatureF,Min TemperatureF,Max Dew PointF,MeanDew PointF,Min DewpointF,Max Humidity, Mean Humidity, Min Humidity, Max Sea Level PressureIn, Mean Sea Level PressureIn, Min Sea Level PressureIn, Max VisibilityMiles, Mean VisibilityMiles, Min VisibilityMiles, Max Wind SpeedMPH, Mean Wind SpeedMPH, Max Gust SpeedMPH,PrecipitationIn, CloudCover, Events, WindDirDegrees
2012-10-1,79,69,58,40,35,28,51,34,16,30.18,30.02,29.96,10,10,10,22,8,28,0.00,1,,12
2012-10-2,82,69,55,39,33,21,51,31,11,30.20,29.94,29.81,10,10,10,18,6,23,0.00,0,,6
2012-10-3,87,68,49,31,23,17,42,25,8,29.93,29.87,29.80,10,10,10,25,4,33,0.00,1,,277
2012-10-4,86,71,55,30,25,20,28,19,10,30.05,29.96,29.89,10,10,10,21,8,29,0.00,2,,206
2012-10-5,82,69,56,33,26,21,32,22,11,30.21,29.92,29.80,10,10,10,23,8,26,0.00,4,,227
2012-10-6,79,63,46,38,33,22,61,37,13,30.00,29.88,29.74,10,10,10,39,15,46,T,6,Rain,84
2012-10-7,69,56,43,34,29,22,67,43,19,30.11,30.00,29.91,10,10,10,32,8,39,0.00,2,,69
2012-10-8,77,60,43,33,25,20,57,36,14,30.09,29.96,29.85,10,10,10,13,4,16,0.00,3,,346
2012-10-9,79,64,48,32,26,21,35,25,15,30.09,29.93,29.86,10,10,10,13,4,18,0.00,2,,135
2012-10-10,77,64,51,35,30,25,50,33,16,30.10,29.97,29.89,10,10,10,21,5,24,0.00,1,,54
2012-10-11,78,66,54,43,35,27,44,31,18,30.17,29.97,29.89,10,10,10,29,7,32,0.00,4,,168
2012-10-12,79,66,53,46,38,20,57,37,16,30.14,29.93,29.75,10,10,10,40,15,49,T,5,Rain-Thunderstorm,202
2012-10-13,65,53,40,36,30,27,64,44,24,30.25,30.05,29.93,10,10,10,23,9,30,0.00,2,,323
2012-10-14,72,58,44,36,32,26,70,46,22,30.25,30.17,30.09,10,10,10,12,4,14,0.00,1,,23
2012-10-15,76,62,47,32,29,26,50,35,19,30.26,30.03,29.90,10,10,10,10,4,13,0.00,0,,9
2012-10-16,79,63,46,31,26,16,46,29,12,30.06,29.81,29.64,10,10,10,15,5,25,0.00,0,,263
2012-10-17,76,63,50,33,12,-11,32,18,3,29.91,29.81,29.71,10,10,10,29,12,37,0.00,0,,352
2012-10-18,76,64,52,12,4,-4,14,11,7,30.02,29.95,29.88,10,10,10,20,12,26,0.00,1,,343
2012-10-19,77,62,47,22,16,10,29,20,10,30.06,29.94,29.84,10,10,8,10,4,13,0.00,0,,325
2012-10-20,79,60,41,23,17,14,31,20,9,29.94,29.82,29.70,10,10,9,9,2,10,0.00,2,,143
2012-10-21,77,64,50,36,29,21,50,33,15,30.06,29.83,29.74,10,10,10,21,6,25,0.00,2,,186
2012-10-22,73,62,50,34,31,26,50,35,20,30.09,29.89,29.78,10,10,10,14,6,20,0.00,1,,174
2012-10-23,76,63,49,31,27,24,42,29,16,30.03,29.85,29.77,10,10,10,14,5,16,0.00,2,,152
2012-10-24,80,67,53,29,24,17,35,23,10,30.01,29.76,29.58,10,10,10,25,10,33,0.00,2,,203
2012-10-25,61,53,45,20,14,8,34,23,12,30.17,29.98,29.82,10,10,10,17,7,23,0.00,0,,351
2012-10-26,55,46,36,24,20,13,59,39,19,30.28,30.21,30.08,10,10,10,21,8,24,0.00,0,,29
2012-10-27,59,46,32,21,18,14,56,38,19,30.25,30.15,30.04,10,10,10,12,4,14,0.00,1,,5
2012-10-28,66,52,37,17,13,9,35,24,13,30.19,30.10,30.01,10,10,10,8,2,10,0.00,3,,203
2012-10-29,73,56,39,19,15,12,34,22,9,30.22,30.11,30.00,10,10,10,13,4,18,0.00,1,,288
2012-10-30,74,57,40,18,15,12,31,21,11,30.25,30.06,29.97,10,10,10,8,4,14,0.00,0,,356
2012-10-31,73,57,41,19,15,12,39,25,11,30.25,30.06,29.99,10,10,7,10,3,13,0.00,1,,355